sensor_id;sensor_type;location;lat;lon;timestamp;P1;durP1;ratioP1;P2;durP2;ratioP2
10920;SDS011;5513;50.580;8.818;2022-10-15T00:01:52;12.53;;;9.93;;
10920;SDS011;5513;50.580;8.818;2022-10-15T00:04:22;11.23;;;9.63;;
10920;SDS011;5513;50.580;8.818;2022-10-15T00:06:54;10.93;;;9.00;;
10920;SDS011;5513;50.580;8.818;2022-10-15T00:09:28;8.70;;;7.40;;
10920;SDS011;5513;50.580;8.818;2022-10-15T00:11:57;9.33;;;8.10;;
10920;SDS011;5513;50.580;8.818;2022-10-15T00:14:25;9.43;;;7.73;;
10920;SDS011;5513;50.580;8.818;2022-10-15T00:16:55;8.13;;;6.93;;
10920;SDS011;5513;50.580;8.818;2022-10-15T00:19:24;10.40;;;8.10;;
10920;SDS011;5513;50.580;8.818;2022-10-15T00:21:55;10.73;;;8.50;;
10920;SDS011;5513;50.580;8.818;2022-10-15T00:24:27;10.80;;;7.43;;
10920;SDS011;5513;50.580;8.818;2022-10-15T00:26:56;8.67;;;6.60;;
10920;SDS011;5513;50.580;8.818;2022-10-15T00:29:24;8.63;;;7.20;;
10920;SDS011;5513;50.580;8.818;2022-10-15T00:31:53;10.30;;;7.70;;
10920;SDS011;5513;50.580;8.818;2022-10-15T00:34:21;8.23;;;6.40;;
10920;SDS011;5513;50.580;8.818;2022-10-15T00:36:50;9.57;;;6.80;;
10920;SDS011;5513;50.580;8.818;2022-10-15T00:39:21;8.73;;;6.90;;
10920;SDS011;5513;50.580;8.818;2022-10-15T00:41:50;7.83;;;6.30;;
10920;SDS011;5513;50.580;8.818;2022-10-15T00:47:25;8.60;;;6.67;;
10920;SDS011;5513;50.580;8.818;2022-10-15T00:50:00;8.03;;;6.33;;
10920;SDS011;5513;50.580;8.818;2022-10-15T00:52:37;7.93;;;6.53;;
10920;SDS011;5513;50.580;8.818;2022-10-15T00:55:13;8.63;;;6.70;;
10920;SDS011;5513;50.580;8.818;2022-10-15T00:57:44;8.20;;;6.27;;
10920;SDS011;5513;50.580;8.818;2022-10-15T01:00:18;8.70;;;6.80;;
10920;SDS011;5513;50.580;8.818;2022-10-15T01:02:47;10.43;;;7.00;;
10920;SDS011;5513;50.580;8.818;2022-10-15T01:05:19;9.33;;;6.93;;
10920;SDS011;5513;50.580;8.818;2022-10-15T01:07:51;9.87;;;6.90;;
10920;SDS011;5513;50.580;8.818;2022-10-15T01:10:21;7.93;;;5.97;;
10920;SDS011;5513;50.580;8.818;2022-10-15T01:13:02;8.43;;;6.73;;
10920;SDS011;5513;50.580;8.818;2022-10-15T01:15:43;7.43;;;6.03;;
10920;SDS011;5513;50.580;8.818;2022-10-15T01:18:18;8.60;;;7.07;;
10920;SDS011;5513;50.580;8.818;2022-10-15T01:20:53;9.27;;;6.37;;
10920;SDS011;5513;50.580;8.818;2022-10-15T01:23:43;8.60;;;6.50;;
10920;SDS011;5513;50.580;8.818;2022-10-15T01:29:24;9.60;;;7.07;;
10920;SDS011;5513;50.580;8.818;2022-10-15T01:32:23;10.17;;;6.93;;
10920;SDS011;5513;50.580;8.818;2022-10-15T01:34:55;9.00;;;6.70;;
10920;SDS011;5513;50.580;8.818;2022-10-15T01:37:34;8.43;;;6.23;;
10920;SDS011;5513;50.580;8.818;2022-10-15T01:40:10;8.57;;;6.53;;
10920;SDS011;5513;50.580;8.818;2022-10-15T01:42:48;9.83;;;7.37;;
10920;SDS011;5513;50.580;8.818;2022-10-15T01:45:22;11.30;;;8.57;;
10920;SDS011;5513;50.580;8.818;2022-10-15T01:47:58;9.87;;;6.93;;
10920;SDS011;5513;50.580;8.818;2022-10-15T01:50:32;7.13;;;5.70;;
10920;SDS011;5513;50.580;8.818;2022-10-15T01:53:05;11.03;;;7.33;;
10920;SDS011;5513;50.580;8.818;2022-10-15T01:55:37;7.23;;;5.17;;
10920;SDS011;5513;50.580;8.818;2022-10-15T01:58:10;6.90;;;5.40;;
10920;SDS011;5513;50.580;8.818;2022-10-15T02:00:40;6.60;;;5.13;;
10920;SDS011;5513;50.580;8.818;2022-10-15T02:03:12;6.90;;;5.33;;
10920;SDS011;5513;50.580;8.818;2022-10-15T02:05:41;7.27;;;5.80;;
10920;SDS011;5513;50.580;8.818;2022-10-15T02:08:17;7.97;;;5.23;;
10920;SDS011;5513;50.580;8.818;2022-10-15T02:10:53;8.73;;;5.30;;
10920;SDS011;5513;50.580;8.818;2022-10-15T02:13:28;7.20;;;5.10;;
10920;SDS011;5513;50.580;8.818;2022-10-15T02:16:05;7.73;;;5.63;;
10920;SDS011;5513;50.580;8.818;2022-10-15T02:18:46;7.97;;;5.77;;
10920;SDS011;5513;50.580;8.818;2022-10-15T02:21:21;5.40;;;4.40;;
10920;SDS011;5513;50.580;8.818;2022-10-15T02:23:58;6.50;;;4.97;;
10920;SDS011;5513;50.580;8.818;2022-10-15T02:26:44;6.73;;;5.10;;
10920;SDS011;5513;50.580;8.818;2022-10-15T02:29:15;7.33;;;5.20;;
10920;SDS011;5513;50.580;8.818;2022-10-15T02:31:46;8.93;;;5.37;;
10920;SDS011;5513;50.580;8.818;2022-10-15T02:34:21;6.97;;;5.33;;
10920;SDS011;5513;50.580;8.818;2022-10-15T02:36:54;8.27;;;5.73;;
10920;SDS011;5513;50.580;8.818;2022-10-15T02:39:25;8.23;;;5.20;;
10920;SDS011;5513;50.580;8.818;2022-10-15T02:41:54;8.97;;;5.13;;
10920;SDS011;5513;50.580;8.818;2022-10-15T02:44:24;9.73;;;6.10;;
10920;SDS011;5513;50.580;8.818;2022-10-15T02:46:53;9.97;;;6.60;;
10920;SDS011;5513;50.580;8.818;2022-10-15T02:49:23;10.70;;;6.20;;
10920;SDS011;5513;50.580;8.818;2022-10-15T02:51:52;10.03;;;5.87;;
10920;SDS011;5513;50.580;8.818;2022-10-15T02:54:21;10.10;;;6.63;;
10920;SDS011;5513;50.580;8.818;2022-10-15T02:56:49;10.13;;;6.87;;
10920;SDS011;5513;50.580;8.818;2022-10-15T02:59:17;11.30;;;7.00;;
10920;SDS011;5513;50.580;8.818;2022-10-15T03:01:46;11.63;;;7.17;;
10920;SDS011;5513;50.580;8.818;2022-10-15T03:04:14;13.23;;;6.90;;
10920;SDS011;5513;50.580;8.818;2022-10-15T03:06:45;11.27;;;6.57;;
10920;SDS011;5513;50.580;8.818;2022-10-15T03:09:14;11.60;;;6.90;;
10920;SDS011;5513;50.580;8.818;2022-10-15T03:11:43;11.30;;;6.70;;
10920;SDS011;5513;50.580;8.818;2022-10-15T03:14:11;11.77;;;7.07;;
10920;SDS011;5513;50.580;8.818;2022-10-15T03:16:40;12.33;;;7.13;;
10920;SDS011;5513;50.580;8.818;2022-10-15T03:19:09;13.67;;;6.83;;
10920;SDS011;5513;50.580;8.818;2022-10-15T03:21:40;11.37;;;6.40;;
10920;SDS011;5513;50.580;8.818;2022-10-15T03:24:10;14.13;;;7.67;;
10920;SDS011;5513;50.580;8.818;2022-10-15T03:26:40;13.33;;;7.00;;
10920;SDS011;5513;50.580;8.818;2022-10-15T03:29:08;13.53;;;7.07;;
10920;SDS011;5513;50.580;8.818;2022-10-15T03:31:37;15.87;;;8.27;;
10920;SDS011;5513;50.580;8.818;2022-10-15T03:34:05;23.07;;;8.17;;
10920;SDS011;5513;50.580;8.818;2022-10-15T03:36:35;18.97;;;7.87;;
10920;SDS011;5513;50.580;8.818;2022-10-15T03:39:03;16.23;;;7.63;;
10920;SDS011;5513;50.580;8.818;2022-10-15T03:41:35;29.97;;;7.77;;
10920;SDS011;5513;50.580;8.818;2022-10-15T03:44:06;31.07;;;9.20;;
10920;SDS011;5513;50.580;8.818;2022-10-15T03:46:36;30.63;;;8.90;;
10920;SDS011;5513;50.580;8.818;2022-10-15T03:49:07;24.13;;;8.70;;
10920;SDS011;5513;50.580;8.818;2022-10-15T03:51:36;17.10;;;8.43;;
10920;SDS011;5513;50.580;8.818;2022-10-15T03:54:06;35.90;;;9.03;;
10920;SDS011;5513;50.580;8.818;2022-10-15T03:56:36;20.37;;;8.90;;
10920;SDS011;5513;50.580;8.818;2022-10-15T03:59:06;26.63;;;9.17;;
10920;SDS011;5513;50.580;8.818;2022-10-15T04:01:35;21.77;;;8.50;;
10920;SDS011;5513;50.580;8.818;2022-10-15T04:04:04;19.63;;;7.73;;
10920;SDS011;5513;50.580;8.818;2022-10-15T04:06:32;20.60;;;7.97;;
10920;SDS011;5513;50.580;8.818;2022-10-15T04:09:02;14.27;;;7.90;;
10920;SDS011;5513;50.580;8.818;2022-10-15T04:11:31;19.87;;;8.47;;
10920;SDS011;5513;50.580;8.818;2022-10-15T04:14:01;20.53;;;8.40;;
10920;SDS011;5513;50.580;8.818;2022-10-15T04:16:30;19.63;;;8.20;;
10920;SDS011;5513;50.580;8.818;2022-10-15T04:18:58;15.07;;;7.10;;
10920;SDS011;5513;50.580;8.818;2022-10-15T04:21:31;15.00;;;6.87;;
10920;SDS011;5513;50.580;8.818;2022-10-15T04:23:59;17.37;;;7.40;;
10920;SDS011;5513;50.580;8.818;2022-10-15T04:26:27;17.57;;;7.50;;
10920;SDS011;5513;50.580;8.818;2022-10-15T04:28:56;16.90;;;8.20;;
10920;SDS011;5513;50.580;8.818;2022-10-15T04:31:26;14.37;;;7.53;;
10920;SDS011;5513;50.580;8.818;2022-10-15T04:33:54;20.17;;;8.53;;
10920;SDS011;5513;50.580;8.818;2022-10-15T04:36:23;16.97;;;7.93;;
10920;SDS011;5513;50.580;8.818;2022-10-15T04:38:52;20.67;;;8.27;;
10920;SDS011;5513;50.580;8.818;2022-10-15T04:41:21;17.93;;;7.73;;
10920;SDS011;5513;50.580;8.818;2022-10-15T04:43:49;22.47;;;8.87;;
10920;SDS011;5513;50.580;8.818;2022-10-15T04:46:18;18.03;;;8.90;;
10920;SDS011;5513;50.580;8.818;2022-10-15T04:48:49;12.70;;;6.60;;
10920;SDS011;5513;50.580;8.818;2022-10-15T04:51:23;11.80;;;6.93;;
10920;SDS011;5513;50.580;8.818;2022-10-15T04:53:52;13.17;;;6.80;;
10920;SDS011;5513;50.580;8.818;2022-10-15T04:56:20;10.60;;;5.97;;
10920;SDS011;5513;50.580;8.818;2022-10-15T04:58:49;11.10;;;5.87;;
10920;SDS011;5513;50.580;8.818;2022-10-15T05:01:19;9.73;;;5.03;;
10920;SDS011;5513;50.580;8.818;2022-10-15T05:03:49;6.67;;;4.07;;
10920;SDS011;5513;50.580;8.818;2022-10-15T05:06:18;7.13;;;4.73;;
10920;SDS011;5513;50.580;8.818;2022-10-15T05:08:49;6.87;;;4.23;;
10920;SDS011;5513;50.580;8.818;2022-10-15T05:11:19;7.70;;;4.20;;
10920;SDS011;5513;50.580;8.818;2022-10-15T05:13:49;6.83;;;4.03;;
10920;SDS011;5513;50.580;8.818;2022-10-15T05:16:20;6.83;;;4.33;;
10920;SDS011;5513;50.580;8.818;2022-10-15T05:18:53;7.53;;;5.17;;
10920;SDS011;5513;50.580;8.818;2022-10-15T05:21:23;6.73;;;4.83;;
10920;SDS011;5513;50.580;8.818;2022-10-15T05:23:53;7.33;;;5.20;;
10920;SDS011;5513;50.580;8.818;2022-10-15T05:26:22;7.73;;;5.17;;
10920;SDS011;5513;50.580;8.818;2022-10-15T05:28:54;8.63;;;5.17;;
10920;SDS011;5513;50.580;8.818;2022-10-15T05:31:24;9.13;;;6.20;;
10920;SDS011;5513;50.580;8.818;2022-10-15T05:33:58;9.30;;;5.40;;
10920;SDS011;5513;50.580;8.818;2022-10-15T05:36:27;9.63;;;6.13;;
10920;SDS011;5513;50.580;8.818;2022-10-15T05:39:00;11.63;;;6.60;;
10920;SDS011;5513;50.580;8.818;2022-10-15T05:41:29;8.90;;;6.17;;
10920;SDS011;5513;50.580;8.818;2022-10-15T05:43:58;10.37;;;6.83;;
10920;SDS011;5513;50.580;8.818;2022-10-15T05:46:27;8.83;;;5.97;;
10920;SDS011;5513;50.580;8.818;2022-10-15T05:48:59;9.57;;;6.13;;
10920;SDS011;5513;50.580;8.818;2022-10-15T05:51:27;10.60;;;6.60;;
10920;SDS011;5513;50.580;8.818;2022-10-15T05:53:57;8.80;;;6.43;;
10920;SDS011;5513;50.580;8.818;2022-10-15T05:56:26;10.57;;;6.40;;
10920;SDS011;5513;50.580;8.818;2022-10-15T05:58:54;11.83;;;6.43;;
10920;SDS011;5513;50.580;8.818;2022-10-15T06:01:24;10.10;;;6.50;;
10920;SDS011;5513;50.580;8.818;2022-10-15T06:03:52;11.57;;;7.10;;
10920;SDS011;5513;50.580;8.818;2022-10-15T06:06:23;12.27;;;6.60;;
10920;SDS011;5513;50.580;8.818;2022-10-15T06:08:53;10.57;;;7.23;;
10920;SDS011;5513;50.580;8.818;2022-10-15T06:11:22;9.97;;;6.73;;
10920;SDS011;5513;50.580;8.818;2022-10-15T06:13:51;10.90;;;6.30;;
10920;SDS011;5513;50.580;8.818;2022-10-15T06:16:19;8.97;;;6.47;;
10920;SDS011;5513;50.580;8.818;2022-10-15T06:18:50;8.47;;;6.80;;
10920;SDS011;5513;50.580;8.818;2022-10-15T06:21:19;8.90;;;6.20;;
10920;SDS011;5513;50.580;8.818;2022-10-15T06:23:49;9.20;;;6.63;;
10920;SDS011;5513;50.580;8.818;2022-10-15T06:26:17;8.33;;;6.07;;
10920;SDS011;5513;50.580;8.818;2022-10-15T06:28:46;8.17;;;6.33;;
10920;SDS011;5513;50.580;8.818;2022-10-15T06:31:14;9.03;;;7.00;;
10920;SDS011;5513;50.580;8.818;2022-10-15T06:33:44;9.03;;;5.70;;
10920;SDS011;5513;50.580;8.818;2022-10-15T06:36:13;10.10;;;6.20;;
10920;SDS011;5513;50.580;8.818;2022-10-15T06:38:41;8.30;;;6.30;;
10920;SDS011;5513;50.580;8.818;2022-10-15T06:41:13;8.23;;;6.30;;
10920;SDS011;5513;50.580;8.818;2022-10-15T06:43:42;8.20;;;5.80;;
10920;SDS011;5513;50.580;8.818;2022-10-15T06:46:11;8.73;;;6.50;;
10920;SDS011;5513;50.580;8.818;2022-10-15T06:48:43;8.33;;;5.70;;
10920;SDS011;5513;50.580;8.818;2022-10-15T06:51:11;9.63;;;6.10;;
10920;SDS011;5513;50.580;8.818;2022-10-15T06:53:40;10.00;;;5.93;;
10920;SDS011;5513;50.580;8.818;2022-10-15T06:56:09;7.80;;;5.50;;
10920;SDS011;5513;50.580;8.818;2022-10-15T06:58:42;6.57;;;5.53;;
10920;SDS011;5513;50.580;8.818;2022-10-15T07:01:10;11.47;;;8.60;;
10920;SDS011;5513;50.580;8.818;2022-10-15T07:03:39;8.63;;;6.57;;
10920;SDS011;5513;50.580;8.818;2022-10-15T07:06:07;12.57;;;10.00;;
10920;SDS011;5513;50.580;8.818;2022-10-15T07:08:36;7.47;;;5.30;;
10920;SDS011;5513;50.580;8.818;2022-10-15T07:11:06;13.10;;;5.70;;
10920;SDS011;5513;50.580;8.818;2022-10-15T07:13:35;7.53;;;6.30;;
10920;SDS011;5513;50.580;8.818;2022-10-15T07:16:07;7.57;;;5.70;;
10920;SDS011;5513;50.580;8.818;2022-10-15T07:18:37;7.57;;;5.83;;
10920;SDS011;5513;50.580;8.818;2022-10-15T07:21:06;9.77;;;6.07;;
10920;SDS011;5513;50.580;8.818;2022-10-15T07:23:36;9.37;;;6.07;;
10920;SDS011;5513;50.580;8.818;2022-10-15T07:26:04;9.10;;;6.50;;
10920;SDS011;5513;50.580;8.818;2022-10-15T07:28:33;6.83;;;5.13;;
10920;SDS011;5513;50.580;8.818;2022-10-15T07:31:03;7.43;;;4.97;;
10920;SDS011;5513;50.580;8.818;2022-10-15T07:33:36;7.07;;;5.50;;
10920;SDS011;5513;50.580;8.818;2022-10-15T07:36:06;10.60;;;5.33;;
10920;SDS011;5513;50.580;8.818;2022-10-15T07:38:35;16.03;;;10.07;;
10920;SDS011;5513;50.580;8.818;2022-10-15T07:41:06;6.70;;;4.37;;
10920;SDS011;5513;50.580;8.818;2022-10-15T07:43:36;7.33;;;4.37;;
10920;SDS011;5513;50.580;8.818;2022-10-15T07:46:06;6.03;;;4.57;;
10920;SDS011;5513;50.580;8.818;2022-10-15T07:48:35;5.57;;;4.33;;
10920;SDS011;5513;50.580;8.818;2022-10-15T07:51:04;5.87;;;4.90;;
10920;SDS011;5513;50.580;8.818;2022-10-15T07:53:34;8.03;;;6.73;;
10920;SDS011;5513;50.580;8.818;2022-10-15T07:56:03;8.27;;;6.03;;
10920;SDS011;5513;50.580;8.818;2022-10-15T07:58:33;10.63;;;5.50;;
10920;SDS011;5513;50.580;8.818;2022-10-15T08:01:04;12.10;;;8.43;;
10920;SDS011;5513;50.580;8.818;2022-10-15T08:03:35;11.27;;;9.27;;
10920;SDS011;5513;50.580;8.818;2022-10-15T08:06:05;9.43;;;7.00;;
10920;SDS011;5513;50.580;8.818;2022-10-15T08:08:34;10.73;;;7.57;;
10920;SDS011;5513;50.580;8.818;2022-10-15T08:11:04;8.90;;;6.73;;
10920;SDS011;5513;50.580;8.818;2022-10-15T08:13:33;15.57;;;10.90;;
10920;SDS011;5513;50.580;8.818;2022-10-15T08:16:02;10.23;;;6.67;;
10920;SDS011;5513;50.580;8.818;2022-10-15T08:18:31;18.47;;;14.57;;
10920;SDS011;5513;50.580;8.818;2022-10-15T08:21:02;12.70;;;7.83;;
10920;SDS011;5513;50.580;8.818;2022-10-15T08:23:32;21.77;;;18.80;;
10920;SDS011;5513;50.580;8.818;2022-10-15T08:26:01;15.17;;;13.53;;
10920;SDS011;5513;50.580;8.818;2022-10-15T08:28:30;9.87;;;7.13;;
10920;SDS011;5513;50.580;8.818;2022-10-15T08:31:00;11.50;;;7.73;;
10920;SDS011;5513;50.580;8.818;2022-10-15T08:33:31;11.07;;;6.70;;
10920;SDS011;5513;50.580;8.818;2022-10-15T08:36:02;9.50;;;6.77;;
10920;SDS011;5513;50.580;8.818;2022-10-15T08:38:34;9.03;;;5.90;;
10920;SDS011;5513;50.580;8.818;2022-10-15T08:41:04;8.87;;;6.13;;
10920;SDS011;5513;50.580;8.818;2022-10-15T08:43:45;13.50;;;8.17;;
10920;SDS011;5513;50.580;8.818;2022-10-15T08:46:15;8.10;;;6.03;;
10920;SDS011;5513;50.580;8.818;2022-10-15T08:48:54;11.10;;;5.67;;
10920;SDS011;5513;50.580;8.818;2022-10-15T08:51:27;8.63;;;5.00;;
10920;SDS011;5513;50.580;8.818;2022-10-15T08:54:03;7.90;;;5.20;;
10920;SDS011;5513;50.580;8.818;2022-10-15T08:56:35;8.10;;;4.70;;
10920;SDS011;5513;50.580;8.818;2022-10-15T08:59:10;7.37;;;5.20;;
10920;SDS011;5513;50.580;8.818;2022-10-15T09:01:46;8.47;;;5.10;;
10920;SDS011;5513;50.580;8.818;2022-10-15T09:04:21;7.87;;;5.07;;
10920;SDS011;5513;50.580;8.818;2022-10-15T09:07:01;6.13;;;4.40;;
10920;SDS011;5513;50.580;8.818;2022-10-15T09:09:37;7.07;;;5.17;;
10920;SDS011;5513;50.580;8.818;2022-10-15T09:12:17;6.37;;;4.27;;
10920;SDS011;5513;50.580;8.818;2022-10-15T09:15:02;7.30;;;4.40;;
10920;SDS011;5513;50.580;8.818;2022-10-15T09:17:33;6.70;;;4.30;;
10920;SDS011;5513;50.580;8.818;2022-10-15T09:20:04;4.17;;;3.57;;
10920;SDS011;5513;50.580;8.818;2022-10-15T09:22:36;3.87;;;3.13;;
10920;SDS011;5513;50.580;8.818;2022-10-15T09:25:13;3.90;;;3.27;;
10920;SDS011;5513;50.580;8.818;2022-10-15T09:27:42;3.07;;;2.50;;
10920;SDS011;5513;50.580;8.818;2022-10-15T09:33:05;3.63;;;2.70;;
10920;SDS011;5513;50.580;8.818;2022-10-15T09:35:41;3.13;;;2.37;;
10920;SDS011;5513;50.580;8.818;2022-10-15T09:38:22;2.97;;;2.60;;
10920;SDS011;5513;50.580;8.818;2022-10-15T09:41:03;3.63;;;2.87;;
10920;SDS011;5513;50.580;8.818;2022-10-15T09:43:43;3.90;;;3.20;;
10920;SDS011;5513;50.580;8.818;2022-10-15T09:46:14;4.60;;;3.07;;
10920;SDS011;5513;50.580;8.818;2022-10-15T09:48:46;5.13;;;3.10;;
10920;SDS011;5513;50.580;8.818;2022-10-15T09:51:27;4.37;;;3.97;;
10920;SDS011;5513;50.580;8.818;2022-10-15T09:54:01;4.73;;;3.07;;
10920;SDS011;5513;50.580;8.818;2022-10-15T09:56:42;2.70;;;2.30;;
10920;SDS011;5513;50.580;8.818;2022-10-15T09:59:18;5.37;;;3.00;;
10920;SDS011;5513;50.580;8.818;2022-10-15T10:01:55;3.23;;;2.60;;
10920;SDS011;5513;50.580;8.818;2022-10-15T10:04:27;2.17;;;1.90;;
10920;SDS011;5513;50.580;8.818;2022-10-15T10:07:00;3.43;;;2.13;;
10920;SDS011;5513;50.580;8.818;2022-10-15T10:09:35;2.60;;;2.17;;
10920;SDS011;5513;50.580;8.818;2022-10-15T10:12:06;3.23;;;2.63;;
10920;SDS011;5513;50.580;8.818;2022-10-15T10:14:45;5.40;;;4.43;;
10920;SDS011;5513;50.580;8.818;2022-10-15T10:17:22;6.87;;;5.13;;
10920;SDS011;5513;50.580;8.818;2022-10-15T10:20:09;6.30;;;5.53;;
10920;SDS011;5513;50.580;8.818;2022-10-15T10:22:42;5.30;;;4.80;;
10920;SDS011;5513;50.580;8.818;2022-10-15T10:25:32;5.80;;;3.83;;
10920;SDS011;5513;50.580;8.818;2022-10-15T10:28:05;4.90;;;3.80;;
10920;SDS011;5513;50.580;8.818;2022-10-15T10:30:58;5.87;;;4.17;;
10920;SDS011;5513;50.580;8.818;2022-10-15T10:33:30;5.20;;;4.10;;
10920;SDS011;5513;50.580;8.818;2022-10-15T10:36:02;5.00;;;4.23;;
10920;SDS011;5513;50.580;8.818;2022-10-15T10:38:33;5.73;;;4.37;;
10920;SDS011;5513;50.580;8.818;2022-10-15T10:41:07;5.50;;;4.60;;
10920;SDS011;5513;50.580;8.818;2022-10-15T10:43:39;6.30;;;5.00;;
10920;SDS011;5513;50.580;8.818;2022-10-15T10:46:20;6.50;;;5.90;;
10920;SDS011;5513;50.580;8.818;2022-10-15T10:48:51;6.30;;;5.07;;
10920;SDS011;5513;50.580;8.818;2022-10-15T10:51:21;6.20;;;5.07;;
10920;SDS011;5513;50.580;8.818;2022-10-15T10:53:58;5.87;;;4.70;;
10920;SDS011;5513;50.580;8.818;2022-10-15T10:56:32;5.10;;;4.17;;
10920;SDS011;5513;50.580;8.818;2022-10-15T10:59:08;5.13;;;4.63;;
10920;SDS011;5513;50.580;8.818;2022-10-15T11:01:41;6.40;;;4.40;;
10920;SDS011;5513;50.580;8.818;2022-10-15T11:04:10;5.50;;;4.93;;
10920;SDS011;5513;50.580;8.818;2022-10-15T11:06:50;5.63;;;4.70;;
10920;SDS011;5513;50.580;8.818;2022-10-15T11:15:24;4.83;;;3.77;;
10920;SDS011;5513;50.580;8.818;2022-10-15T11:18:05;6.40;;;4.13;;
10920;SDS011;5513;50.580;8.818;2022-10-15T11:20:51;5.97;;;3.80;;
10920;SDS011;5513;50.580;8.818;2022-10-15T11:23:36;5.77;;;3.37;;
10920;SDS011;5513;50.580;8.818;2022-10-15T11:26:18;4.63;;;3.80;;
10920;SDS011;5513;50.580;8.818;2022-10-15T11:29:27;5.63;;;3.53;;
10920;SDS011;5513;50.580;8.818;2022-10-15T11:32:08;5.33;;;3.23;;
10920;SDS011;5513;50.580;8.818;2022-10-15T11:34:56;4.30;;;3.00;;
10920;SDS011;5513;50.580;8.818;2022-10-15T11:37:59;4.93;;;2.87;;
10920;SDS011;5513;50.580;8.818;2022-10-15T11:40:42;3.60;;;2.50;;
10920;SDS011;5513;50.580;8.818;2022-10-15T11:46:11;4.03;;;2.20;;
10920;SDS011;5513;50.580;8.818;2022-10-15T11:48:51;4.20;;;2.20;;
10920;SDS011;5513;50.580;8.818;2022-10-15T11:51:30;3.33;;;2.00;;
10920;SDS011;5513;50.580;8.818;2022-10-15T11:54:11;4.03;;;2.37;;
10920;SDS011;5513;50.580;8.818;2022-10-15T11:56:46;2.80;;;2.17;;
10920;SDS011;5513;50.580;8.818;2022-10-15T11:59:27;4.00;;;2.20;;
10920;SDS011;5513;50.580;8.818;2022-10-15T12:02:07;5.53;;;1.93;;
10920;SDS011;5513;50.580;8.818;2022-10-15T12:04:43;3.23;;;1.80;;
10920;SDS011;5513;50.580;8.818;2022-10-15T12:07:17;2.80;;;1.90;;
10920;SDS011;5513;50.580;8.818;2022-10-15T12:09:50;2.13;;;1.80;;
10920;SDS011;5513;50.580;8.818;2022-10-15T12:12:25;3.20;;;1.53;;
10920;SDS011;5513;50.580;8.818;2022-10-15T12:15:07;3.70;;;1.90;;
10920;SDS011;5513;50.580;8.818;2022-10-15T12:17:54;2.20;;;1.90;;
10920;SDS011;5513;50.580;8.818;2022-10-15T12:20:29;2.37;;;1.80;;
10920;SDS011;5513;50.580;8.818;2022-10-15T12:22:59;3.03;;;1.90;;
10920;SDS011;5513;50.580;8.818;2022-10-15T12:25:41;4.97;;;2.40;;
10920;SDS011;5513;50.580;8.818;2022-10-15T12:28:13;5.63;;;2.40;;
10920;SDS011;5513;50.580;8.818;2022-10-15T12:33:37;6.40;;;2.40;;
10920;SDS011;5513;50.580;8.818;2022-10-15T12:36:20;3.20;;;2.40;;
10920;SDS011;5513;50.580;8.818;2022-10-15T12:38:55;3.40;;;2.40;;
10920;SDS011;5513;50.580;8.818;2022-10-15T12:41:36;3.00;;;2.60;;
10920;SDS011;5513;50.580;8.818;2022-10-15T12:44:16;4.93;;;2.70;;
10920;SDS011;5513;50.580;8.818;2022-10-15T12:46:52;4.07;;;2.70;;
10920;SDS011;5513;50.580;8.818;2022-10-15T12:55:26;5.20;;;3.17;;
10920;SDS011;5513;50.580;8.818;2022-10-15T12:57:59;4.73;;;3.40;;
10920;SDS011;5513;50.580;8.818;2022-10-15T13:00:34;4.50;;;3.20;;
10920;SDS011;5513;50.580;8.818;2022-10-15T13:03:21;3.37;;;3.07;;
10920;SDS011;5513;50.580;8.818;2022-10-15T13:06:00;3.80;;;3.10;;
10920;SDS011;5513;50.580;8.818;2022-10-15T13:08:46;3.23;;;2.93;;
10920;SDS011;5513;50.580;8.818;2022-10-15T13:11:18;4.03;;;2.70;;
10920;SDS011;5513;50.580;8.818;2022-10-15T13:13:52;3.70;;;2.80;;
10920;SDS011;5513;50.580;8.818;2022-10-15T13:16:25;3.73;;;3.00;;
10920;SDS011;5513;50.580;8.818;2022-10-15T13:18:55;5.23;;;3.20;;
10920;SDS011;5513;50.580;8.818;2022-10-15T13:24:18;4.10;;;3.00;;
10920;SDS011;5513;50.580;8.818;2022-10-15T13:26:53;3.70;;;3.40;;
10920;SDS011;5513;50.580;8.818;2022-10-15T13:29:25;3.50;;;3.20;;
10920;SDS011;5513;50.580;8.818;2022-10-15T13:31:55;3.60;;;3.30;;
10920;SDS011;5513;50.580;8.818;2022-10-15T13:34:25;4.83;;;3.77;;
10920;SDS011;5513;50.580;8.818;2022-10-15T13:36:59;5.00;;;3.40;;
10920;SDS011;5513;50.580;8.818;2022-10-15T13:39:30;3.90;;;3.60;;
10920;SDS011;5513;50.580;8.818;2022-10-15T13:42:07;4.83;;;4.20;;
10920;SDS011;5513;50.580;8.818;2022-10-15T13:44:41;5.07;;;4.00;;
10920;SDS011;5513;50.580;8.818;2022-10-15T13:47:18;4.63;;;4.10;;
10920;SDS011;5513;50.580;8.818;2022-10-15T13:52:47;3.63;;;3.30;;
10920;SDS011;5513;50.580;8.818;2022-10-15T13:55:22;3.73;;;3.43;;
10920;SDS011;5513;50.580;8.818;2022-10-15T13:57:57;5.80;;;4.00;;
10920;SDS011;5513;50.580;8.818;2022-10-15T14:00:28;4.07;;;3.67;;
10920;SDS011;5513;50.580;8.818;2022-10-15T14:03:07;4.40;;;3.40;;
10920;SDS011;5513;50.580;8.818;2022-10-15T14:05:37;3.73;;;3.43;;
10920;SDS011;5513;50.580;8.818;2022-10-15T14:08:14;3.67;;;3.17;;
10920;SDS011;5513;50.580;8.818;2022-10-15T14:10:46;3.87;;;3.23;;
10920;SDS011;5513;50.580;8.818;2022-10-15T14:13:16;3.07;;;2.80;;
10920;SDS011;5513;50.580;8.818;2022-10-15T14:15:47;4.33;;;3.03;;
10920;SDS011;5513;50.580;8.818;2022-10-15T14:18:27;4.90;;;2.80;;
10920;SDS011;5513;50.580;8.818;2022-10-15T14:20:59;3.67;;;2.80;;
10920;SDS011;5513;50.580;8.818;2022-10-15T14:23:31;4.87;;;3.00;;
10920;SDS011;5513;50.580;8.818;2022-10-15T14:26:01;3.00;;;2.80;;
10920;SDS011;5513;50.580;8.818;2022-10-15T14:28:31;18.53;;;9.17;;
10920;SDS011;5513;50.580;8.818;2022-10-15T14:31:04;2.77;;;2.30;;
10920;SDS011;5513;50.580;8.818;2022-10-15T14:33:43;3.40;;;2.97;;
10920;SDS011;5513;50.580;8.818;2022-10-15T14:36:22;3.20;;;2.90;;
10920;SDS011;5513;50.580;8.818;2022-10-15T14:38:54;3.83;;;2.70;;
10920;SDS011;5513;50.580;8.818;2022-10-15T14:41:53;3.60;;;3.30;;
10920;SDS011;5513;50.580;8.818;2022-10-15T14:44:22;3.20;;;2.90;;
10920;SDS011;5513;50.580;8.818;2022-10-15T14:46:58;3.03;;;2.47;;
10920;SDS011;5513;50.580;8.818;2022-10-15T14:49:32;5.70;;;2.70;;
10920;SDS011;5513;50.580;8.818;2022-10-15T14:52:03;6.73;;;2.50;;
10920;SDS011;5513;50.580;8.818;2022-10-15T14:54:37;3.90;;;2.57;;
10920;SDS011;5513;50.580;8.818;2022-10-15T14:57:13;2.77;;;2.50;;
10920;SDS011;5513;50.580;8.818;2022-10-15T14:59:50;3.53;;;2.83;;
10920;SDS011;5513;50.580;8.818;2022-10-15T15:02:21;2.80;;;2.20;;
10920;SDS011;5513;50.580;8.818;2022-10-15T15:05:03;2.50;;;2.30;;
10920;SDS011;5513;50.580;8.818;2022-10-15T15:07:37;5.30;;;2.40;;
10920;SDS011;5513;50.580;8.818;2022-10-15T15:10:09;2.83;;;2.30;;
10920;SDS011;5513;50.580;8.818;2022-10-15T15:12:38;2.93;;;2.23;;
10920;SDS011;5513;50.580;8.818;2022-10-15T15:15:12;3.07;;;2.10;;
10920;SDS011;5513;50.580;8.818;2022-10-15T15:17:41;3.53;;;2.17;;
10920;SDS011;5513;50.580;8.818;2022-10-15T15:20:10;3.40;;;2.53;;
10920;SDS011;5513;50.580;8.818;2022-10-15T15:22:39;2.80;;;2.30;;
10920;SDS011;5513;50.580;8.818;2022-10-15T15:25:16;3.70;;;2.20;;
10920;SDS011;5513;50.580;8.818;2022-10-15T15:27:46;4.93;;;2.10;;
10920;SDS011;5513;50.580;8.818;2022-10-15T15:30:17;4.10;;;1.97;;
10920;SDS011;5513;50.580;8.818;2022-10-15T15:32:47;5.13;;;2.27;;
10920;SDS011;5513;50.580;8.818;2022-10-15T15:35:19;3.07;;;2.13;;
10920;SDS011;5513;50.580;8.818;2022-10-15T15:37:50;2.40;;;2.20;;
10920;SDS011;5513;50.580;8.818;2022-10-15T15:40:24;2.63;;;2.10;;
10920;SDS011;5513;50.580;8.818;2022-10-15T15:42:52;3.03;;;2.20;;
10920;SDS011;5513;50.580;8.818;2022-10-15T15:45:23;4.27;;;2.23;;
10920;SDS011;5513;50.580;8.818;2022-10-15T15:47:53;2.50;;;2.03;;
10920;SDS011;5513;50.580;8.818;2022-10-15T15:50:24;3.03;;;2.53;;
10920;SDS011;5513;50.580;8.818;2022-10-15T15:52:52;3.63;;;2.90;;
10920;SDS011;5513;50.580;8.818;2022-10-15T15:55:23;3.47;;;2.40;;
10920;SDS011;5513;50.580;8.818;2022-10-15T15:57:51;2.93;;;2.73;;
10920;SDS011;5513;50.580;8.818;2022-10-15T16:00:20;2.90;;;2.60;;
10920;SDS011;5513;50.580;8.818;2022-10-15T16:02:50;3.87;;;2.80;;
10920;SDS011;5513;50.580;8.818;2022-10-15T16:05:23;4.17;;;2.10;;